createdAt,value
2023-05-21T00:00:54.256Z,97.39
2023-05-21T00:01:54.238Z,97.19
2023-05-21T00:02:54.288Z,97.19
2023-05-21T00:03:54.320Z,97.19
2023-05-21T00:04:54.201Z,96.92
2023-05-21T00:05:54.371Z,96.83
2023-05-21T00:06:54.184Z,97.03
2023-05-21T00:07:54.159Z,97.13
2023-05-21T00:08:54.155Z,97.33
2023-05-21T00:09:54.160Z,97.95
2023-05-21T00:10:54.149Z,98.05
2023-05-21T00:11:54.115Z,97.64
2023-05-21T00:12:54.104Z,97.69
2023-05-21T00:13:54.089Z,97.89
2023-05-21T00:14:54.123Z,97.99
2023-05-21T00:15:54.099Z,98.10
2023-05-21T00:16:54.101Z,98.61
2023-05-21T00:17:54.092Z,98.81
2023-05-21T00:18:54.066Z,98.71
2023-05-21T00:19:54.040Z,98.30
2023-05-21T00:20:54.026Z,98.61
2023-05-21T00:21:54.019Z,98.61
2023-05-21T00:22:54.001Z,99.32
2023-05-21T00:23:54.021Z,99.63
2023-05-21T00:24:53.997Z,99.52
2023-05-21T00:25:53.989Z,99.43
2023-05-21T00:26:53.961Z,99.22
2023-05-21T00:27:53.944Z,99.22
2023-05-21T00:28:53.963Z,99.11
2023-05-21T00:29:53.998Z,98.91
2023-05-21T00:30:53.918Z,99.11
2023-05-21T00:31:53.931Z,99.32
2023-05-21T00:32:53.892Z,99.22
2023-05-21T00:33:53.896Z,99.11
2023-05-21T00:34:53.867Z,98.81
2023-05-21T00:35:53.860Z,98.81
2023-05-21T00:36:53.866Z,99.11
2023-05-21T00:37:53.866Z,99.43
2023-05-21T00:38:53.858Z,99.43
2023-05-21T00:39:53.959Z,99.02
2023-05-21T00:40:53.811Z,99.02
2023-05-21T00:41:53.786Z,99.22
2023-05-21T00:42:53.799Z,99.32
2023-05-21T00:43:53.773Z,98.91
2023-05-21T00:44:53.757Z,98.86
2023-05-21T00:45:53.825Z,98.96
2023-05-21T00:46:53.798Z,98.96
2023-05-21T00:47:53.761Z,99.16
2023-05-21T00:48:53.711Z,99.27
2023-05-21T00:49:53.722Z,99.27
2023-05-21T00:50:53.690Z,99.16
2023-05-21T00:51:53.705Z,99.37
2023-05-21T00:52:53.688Z,99.57
2023-05-21T00:53:53.674Z,99.52
2023-05-21T00:54:53.647Z,99.43
2023-05-21T00:55:53.648Z,99.63
2023-05-21T00:56:53.651Z,99.63
2023-05-21T00:57:53.633Z,99.63
2023-05-21T00:58:53.610Z,99.52
2023-05-21T00:59:53.604Z,99.52
2023-05-21T01:00:53.608Z,99.73
2023-05-21T01:01:53.601Z,99.63
2023-05-21T01:02:53.634Z,99.63
2023-05-21T01:03:53.569Z,99.32
2023-05-21T01:04:53.541Z,99.22
2023-05-21T01:05:53.555Z,98.91
2023-05-21T01:06:53.533Z,98.91
2023-05-21T01:07:53.521Z,99.02
2023-05-21T01:08:53.494Z,99.22
2023-05-21T01:09:53.501Z,99.32
2023-05-21T01:10:53.492Z,98.91
2023-05-21T01:11:53.493Z,99.02
2023-05-21T01:12:53.455Z,99.43
2023-05-21T01:13:53.446Z,99.52
2023-05-21T01:14:53.453Z,99.32
2023-05-21T01:15:53.445Z,99.32
2023-05-21T01:16:53.566Z,99.43
2023-05-21T01:17:53.494Z,99.43
2023-05-21T01:18:53.447Z,99.63
2023-05-21T01:19:53.495Z,99.73
2023-05-21T01:20:53.390Z,99.73
2023-05-21T01:21:53.371Z,99.73
2023-05-21T01:22:53.350Z,99.84
2023-05-21T01:23:53.346Z,99.99
2023-05-21T01:24:53.342Z,99.84
2023-05-21T01:25:53.317Z,99.68
2023-05-21T01:26:53.316Z,99.88
2023-05-21T01:27:53.310Z,99.99
2023-05-21T01:28:53.308Z,99.99
2023-05-21T01:29:53.540Z,99.99
2023-05-21T01:30:53.267Z,99.99
2023-05-21T01:31:53.261Z,99.99
2023-05-21T01:32:53.341Z,99.99
2023-05-21T01:33:53.281Z,99.99
2023-05-21T01:34:53.269Z,99.99
2023-05-21T01:35:53.230Z,99.99
2023-05-21T01:36:53.205Z,99.99
2023-05-21T01:37:53.208Z,99.99
2023-05-21T01:38:53.191Z,99.99
2023-05-21T01:39:53.188Z,99.99
2023-05-21T01:40:53.161Z,99.99
2023-05-21T01:41:53.155Z,99.99
2023-05-21T01:42:53.149Z,99.99
2023-05-21T01:43:53.158Z,99.99
2023-05-21T01:44:53.125Z,99.99
2023-05-21T01:45:53.165Z,99.99
2023-05-21T01:46:53.179Z,99.99
2023-05-21T01:47:53.167Z,99.99
2023-05-21T01:48:53.110Z,99.99
2023-05-21T01:49:53.080Z,99.99
2023-05-21T01:50:53.067Z,99.99
2023-05-21T01:51:53.047Z,99.99
2023-05-21T01:52:53.048Z,99.99
2023-05-21T01:53:53.028Z,99.99
2023-05-21T01:54:53.009Z,99.99
2023-05-21T01:55:53.002Z,99.99
2023-05-21T01:56:52.983Z,99.99
2023-05-21T01:57:53.004Z,99.99
2023-05-21T01:58:52.969Z,99.99
2023-05-21T01:59:52.964Z,99.99
2023-05-21T02:00:52.946Z,99.99
2023-05-21T02:01:53.030Z,99.99
2023-05-21T02:02:52.965Z,99.99
2023-05-21T02:03:52.987Z,99.99
2023-05-21T02:04:52.898Z,99.99
2023-05-21T02:05:52.904Z,99.99
2023-05-21T02:06:52.910Z,99.99
2023-05-21T02:07:52.876Z,99.99
2023-05-21T02:08:52.886Z,99.99
2023-05-21T02:09:52.877Z,99.99
2023-05-21T02:10:52.841Z,99.99
2023-05-21T02:11:52.853Z,99.99
2023-05-21T02:12:52.849Z,99.99
2023-05-21T02:13:52.814Z,99.99
2023-05-21T02:14:52.798Z,99.99
2023-05-21T02:15:52.825Z,99.99
2023-05-21T02:16:52.794Z,99.99
2023-05-21T02:17:52.779Z,99.99
2023-05-21T02:18:52.807Z,99.99
2023-05-21T02:19:52.751Z,99.99
2023-05-21T02:20:52.754Z,99.99
2023-05-21T02:21:52.724Z,99.99
2023-05-21T02:22:52.712Z,99.99
2023-05-21T02:23:52.726Z,99.99
2023-05-21T02:24:52.696Z,99.99
2023-05-21T02:25:52.709Z,99.99
2023-05-21T02:26:52.667Z,99.99
2023-05-21T02:27:52.664Z,99.99
2023-05-21T02:28:52.654Z,99.99
2023-05-21T02:29:52.668Z,99.99
2023-05-21T02:30:52.670Z,99.99
2023-05-21T02:31:52.642Z,99.99
2023-05-21T02:32:52.643Z,99.99
2023-05-21T02:33:52.609Z,99.99
2023-05-21T02:34:52.613Z,99.99
2023-05-21T02:35:52.587Z,99.99
2023-05-21T02:36:52.570Z,99.99
2023-05-21T02:37:52.564Z,99.99
2023-05-21T02:38:52.542Z,99.99
2023-05-21T02:39:52.565Z,99.99
2023-05-21T02:40:52.517Z,99.99
2023-05-21T02:41:52.513Z,99.99
2023-05-21T02:42:52.506Z,99.99
2023-05-21T02:43:52.509Z,99.99
2023-05-21T02:44:52.520Z,99.99
2023-05-21T02:45:52.522Z,99.99
2023-05-21T02:46:52.407Z,99.99
2023-05-21T02:47:52.492Z,99.99
2023-05-21T02:48:52.457Z,99.99
2023-05-21T02:49:52.428Z,99.99
2023-05-21T02:50:52.431Z,99.99
2023-05-21T02:51:52.408Z,99.99
2023-05-21T02:52:52.384Z,99.99
2023-05-21T02:53:52.358Z,99.99
2023-05-21T02:54:52.308Z,99.99
2023-05-21T02:55:52.378Z,99.99
2023-05-21T02:56:52.344Z,99.99
2023-05-21T02:57:52.399Z,99.99
2023-05-21T02:58:52.366Z,99.99
2023-05-21T02:59:52.326Z,99.99
2023-05-21T03:00:52.258Z,99.99
2023-05-21T03:01:52.339Z,99.99
2023-05-21T03:02:52.372Z,99.99
2023-05-21T03:03:52.230Z,99.99
2023-05-21T03:04:52.207Z,99.99
2023-05-21T03:05:52.200Z,99.99
2023-05-21T03:06:52.186Z,99.99
2023-05-21T03:07:52.204Z,99.99
2023-05-21T03:08:52.172Z,99.99
2023-05-21T03:09:52.160Z,99.99
2023-05-21T03:10:52.141Z,99.99
2023-05-21T03:11:52.155Z,99.99
2023-05-21T03:12:52.144Z,99.99
2023-05-21T03:13:52.111Z,99.99
2023-05-21T03:14:52.093Z,99.99
2023-05-21T03:15:52.093Z,99.99
2023-05-21T03:16:52.111Z,99.99
2023-05-21T03:17:52.083Z,99.99
2023-05-21T03:18:52.077Z,99.99
2023-05-21T03:19:52.053Z,99.99
2023-05-21T03:20:52.041Z,99.99
2023-05-21T03:21:52.047Z,99.99
2023-05-21T03:22:52.018Z,99.99
2023-05-21T03:23:52.014Z,99.99
2023-05-21T03:24:51.990Z,99.99
2023-05-21T03:25:52.114Z,99.99
2023-05-21T03:26:52.237Z,99.99
2023-05-21T03:27:51.962Z,99.99
2023-05-21T03:28:51.971Z,99.99
2023-05-21T03:29:51.973Z,99.99
2023-05-21T03:30:51.957Z,99.99
2023-05-21T03:31:51.960Z,99.99
2023-05-21T03:32:51.918Z,99.99
2023-05-21T03:33:51.909Z,99.99
2023-05-21T03:34:51.908Z,99.99
2023-05-21T03:35:51.910Z,99.99
2023-05-21T03:36:51.874Z,99.99
2023-05-21T03:37:51.863Z,99.99
2023-05-21T03:38:51.844Z,99.99
2023-05-21T03:39:51.867Z,99.99
2023-05-21T03:40:51.855Z,99.99
2023-05-21T03:41:51.824Z,99.99
2023-05-21T03:42:51.803Z,99.99
2023-05-21T03:43:51.799Z,99.99
2023-05-21T03:44:51.813Z,99.99
2023-05-21T03:45:51.807Z,99.99
2023-05-21T03:46:51.770Z,99.99
2023-05-21T03:47:51.761Z,99.99
2023-05-21T03:48:51.752Z,99.99
2023-05-21T03:49:51.757Z,99.99
2023-05-21T03:50:51.721Z,99.99
2023-05-21T03:51:51.731Z,99.99
2023-05-21T03:52:51.700Z,99.99
2023-05-21T03:53:51.708Z,99.99
2023-05-21T03:54:51.720Z,99.99
2023-05-21T03:55:51.675Z,99.99
2023-05-21T03:56:51.726Z,99.99
2023-05-21T03:57:51.653Z,99.99
2023-05-21T03:58:51.655Z,99.99
2023-05-21T03:59:51.629Z,99.99
2023-05-21T04:00:51.611Z,99.99
2023-05-21T04:01:51.632Z,99.99
2023-05-21T04:02:51.630Z,99.99
2023-05-21T04:03:51.714Z,99.99
2023-05-21T04:04:51.819Z,99.99
2023-05-21T04:05:51.593Z,99.99
2023-05-21T04:06:51.550Z,99.99
2023-05-21T04:07:51.558Z,99.99
2023-05-21T04:08:51.547Z,99.99
2023-05-21T04:09:51.529Z,99.99
2023-05-21T04:10:51.501Z,99.99
2023-05-21T04:11:51.500Z,99.99
2023-05-21T04:12:51.513Z,99.99
2023-05-21T04:13:51.479Z,99.99
2023-05-21T04:14:51.461Z,99.99
2023-05-21T04:15:51.474Z,99.99
2023-05-21T04:16:51.478Z,99.99
2023-05-21T04:17:51.503Z,99.99
2023-05-21T04:18:51.480Z,99.99
2023-05-21T04:19:51.411Z,99.99
2023-05-21T04:20:51.406Z,99.99
2023-05-21T04:21:51.421Z,99.99
2023-05-21T04:22:51.381Z,99.99
2023-05-21T04:23:51.370Z,99.99
2023-05-21T04:24:51.357Z,99.99
2023-05-21T04:25:51.385Z,99.99
2023-05-21T04:26:51.369Z,99.99
2023-05-21T04:27:51.334Z,99.70
2023-05-21T04:28:51.314Z,99.60
2023-05-21T04:29:51.321Z,99.50
2023-05-21T04:30:51.374Z,99.50
2023-05-21T04:31:51.509Z,99.29
2023-05-21T04:32:51.358Z,99.09
2023-05-21T04:33:51.265Z,98.99
2023-05-21T04:34:51.251Z,99.09
2023-05-21T04:35:51.279Z,98.74
2023-05-21T04:36:51.229Z,98.43
2023-05-21T04:37:51.223Z,98.33
2023-05-21T04:38:51.207Z,98.23
2023-05-21T04:39:51.213Z,97.92
2023-05-21T04:40:51.202Z,97.72
2023-05-21T04:41:51.185Z,97.47
2023-05-21T04:42:51.171Z,97.16
2023-05-21T04:43:51.157Z,97.06
2023-05-21T04:44:51.172Z,96.76
2023-05-21T04:45:51.164Z,96.25
2023-05-21T04:46:51.147Z,96.35
2023-05-21T04:47:51.166Z,96.35
2023-05-21T04:48:51.112Z,96.35
2023-05-21T04:49:51.123Z,96.45
2023-05-21T04:50:51.090Z,96.51
2023-05-21T04:51:51.092Z,96.20
2023-05-21T04:52:51.064Z,96.00
2023-05-21T04:53:51.063Z,96.10
2023-05-21T04:54:51.090Z,96.10
2023-05-21T04:55:51.064Z,95.90
2023-05-21T04:56:51.017Z,95.90
2023-05-21T04:57:51.026Z,95.49
2023-05-21T04:58:51.039Z,95.49
2023-05-21T04:59:51.031Z,95.18
2023-05-21T05:00:51.274Z,95.29
2023-05-21T05:01:50.970Z,95.39
2023-05-21T05:02:51.047Z,95.39
2023-05-21T05:03:50.980Z,95.39
2023-05-21T05:04:50.947Z,95.04
2023-05-21T05:05:50.930Z,95.08
2023-05-21T05:06:50.928Z,95.14
2023-05-21T05:07:50.908Z,95.04
2023-05-21T05:08:50.926Z,95.04
2023-05-21T05:09:50.888Z,95.24
2023-05-21T05:10:50.905Z,95.34
2023-05-21T05:11:50.864Z,95.14
2023-05-21T05:12:50.891Z,94.93
2023-05-21T05:13:50.895Z,94.63
2023-05-21T05:14:50.861Z,94.53
2023-05-21T05:15:52.025Z,94.63
2023-05-21T05:16:50.980Z,95.00
2023-05-21T05:17:50.855Z,94.89
2023-05-21T05:18:50.845Z,94.59
2023-05-21T05:19:50.793Z,93.98
2023-05-21T05:20:50.798Z,94.08
2023-05-21T05:21:50.772Z,94.08
2023-05-21T05:22:50.770Z,93.98
2023-05-21T05:23:50.739Z,93.67
2023-05-21T05:24:50.740Z,93.32
2023-05-21T05:25:50.722Z,93.22
2023-05-21T05:26:50.745Z,92.82
2023-05-21T05:27:51.000Z,92.91
2023-05-21T05:28:50.689Z,92.71
2023-05-21T05:29:50.669Z,92.51
2023-05-21T05:30:50.703Z,93.02
2023-05-21T05:31:50.714Z,92.16
2023-05-21T05:32:50.663Z,92.06
2023-05-21T05:33:50.633Z,92.06
2023-05-21T05:34:50.636Z,91.96
2023-05-21T05:35:50.616Z,91.51
2023-05-21T05:36:50.624Z,91.51
2023-05-21T05:37:50.582Z,91.00
2023-05-21T05:38:50.586Z,90.90
2023-05-21T05:39:50.559Z,90.90
2023-05-21T05:40:50.587Z,90.59
2023-05-21T05:41:50.564Z,89.58
2023-05-21T05:42:50.536Z,89.37
2023-05-21T05:43:50.533Z,89.33
2023-05-21T05:44:50.516Z,90.05
2023-05-21T05:45:50.528Z,89.74
2023-05-21T05:46:50.493Z,89.54
2023-05-21T05:47:50.549Z,89.33
2023-05-21T05:48:50.486Z,89.03
2023-05-21T05:49:50.450Z,89.54
2023-05-21T05:50:50.587Z,89.23
2023-05-21T05:51:50.438Z,88.68
2023-05-21T05:52:50.439Z,89.19
2023-05-21T05:53:50.404Z,88.78
2023-05-21T05:54:50.426Z,88.58
2023-05-21T05:55:50.412Z,89.19
2023-05-21T05:56:50.384Z,88.28
2023-05-21T05:57:50.384Z,88.28
2023-05-21T05:58:50.364Z,88.28
2023-05-21T05:59:50.356Z,88.54
2023-05-21T06:00:50.343Z,88.44
2023-05-21T06:01:50.326Z,88.75
2023-05-21T06:02:50.389Z,87.63
2023-05-21T06:03:50.363Z,87.93
2023-05-21T06:04:50.312Z,88.13
2023-05-21T06:05:50.288Z,87.63
2023-05-21T06:06:50.285Z,87.43
2023-05-21T06:07:50.261Z,87.93
2023-05-21T06:08:50.269Z,87.52
2023-05-21T06:09:50.274Z,86.82
2023-05-21T06:10:50.250Z,87.73
2023-05-21T06:11:50.217Z,87.32
2023-05-21T06:12:50.228Z,87.83
2023-05-21T06:13:50.251Z,87.52
2023-05-21T06:14:50.190Z,88.20
2023-05-21T06:15:50.189Z,87.89
2023-05-21T06:16:50.191Z,87.28
2023-05-21T06:17:50.217Z,87.99
2023-05-21T06:18:50.186Z,87.69
2023-05-21T06:19:50.136Z,87.79
2023-05-21T06:20:50.140Z,87.38
2023-05-21T06:21:50.100Z,87.28
2023-05-21T06:22:50.104Z,87.14
2023-05-21T06:23:50.104Z,87.54
2023-05-21T06:24:50.081Z,86.94
2023-05-21T06:25:50.058Z,86.53
2023-05-21T06:26:50.056Z,86.02
2023-05-21T06:27:50.061Z,86.83
2023-05-21T06:28:50.058Z,86.13
2023-05-21T06:29:50.021Z,86.94
2023-05-21T06:30:50.023Z,85.72
2023-05-21T06:31:50.005Z,86.83
2023-05-21T06:32:50.099Z,87.74
2023-05-21T06:33:50.096Z,86.43
2023-05-21T06:34:49.969Z,85.88
2023-05-21T06:35:49.961Z,86.19
2023-05-21T06:36:49.950Z,86.19
2023-05-21T06:37:49.953Z,85.68
2023-05-21T06:38:49.929Z,85.27
2023-05-21T06:39:49.917Z,85.27
2023-05-21T06:40:49.905Z,84.67
2023-05-21T06:41:49.942Z,84.87
2023-05-21T06:42:49.914Z,84.93
2023-05-21T06:43:49.906Z,84.93
2023-05-21T06:44:49.870Z,84.63
2023-05-21T06:45:49.866Z,85.33
2023-05-21T06:46:49.862Z,85.24
2023-05-21T06:47:49.840Z,85.39
2023-05-21T06:48:49.837Z,84.48
2023-05-21T06:49:49.814Z,84.39
2023-05-21T06:50:49.800Z,84.48
2023-05-21T06:51:49.808Z,84.04
2023-05-21T06:52:49.787Z,84.45
2023-05-21T06:53:49.761Z,84.04
2023-05-21T06:54:49.757Z,84.75
2023-05-21T06:55:49.763Z,84.65
2023-05-21T06:56:49.753Z,85.05
2023-05-21T06:57:49.731Z,83.80
2023-05-21T06:58:49.738Z,82.08
2023-05-21T06:59:49.705Z,82.08
2023-05-21T07:00:49.753Z,82.59
2023-05-21T07:01:49.673Z,83.80
2023-05-21T07:02:49.762Z,82.69
2023-05-21T07:03:49.752Z,82.08
2023-05-21T07:04:49.648Z,82.65
2023-05-21T07:05:49.648Z,82.35
2023-05-21T07:06:49.629Z,81.74
2023-05-21T07:07:49.610Z,81.54
2023-05-21T07:08:49.616Z,81.94
2023-05-21T07:09:49.609Z,81.44
2023-05-21T07:10:49.606Z,82.55
2023-05-21T07:11:49.571Z,82.14
2023-05-21T07:12:49.561Z,82.51
2023-05-21T07:13:49.541Z,82.10
2023-05-21T07:14:49.571Z,80.79
2023-05-21T07:15:49.527Z,82.31
2023-05-21T07:16:49.565Z,81.50
2023-05-21T07:17:49.554Z,79.79
2023-05-21T07:18:49.523Z,82.31
2023-05-21T07:19:49.501Z,81.76
2023-05-21T07:20:49.477Z,81.46
2023-05-21T07:21:49.477Z,81.87
2023-05-21T07:22:49.467Z,82.13
2023-05-21T07:23:49.451Z,80.41
2023-05-21T07:24:49.468Z,80.88
2023-05-21T07:25:49.421Z,79.33
2023-05-21T07:26:49.405Z,78.42
2023-05-21T07:27:49.386Z,77.68
2023-05-21T07:28:49.421Z,75.96
2023-05-21T07:29:49.371Z,77.04
2023-05-21T07:30:49.403Z,77.84
2023-05-21T07:31:49.346Z,75.90
2023-05-21T07:32:49.410Z,76.80
2023-05-21T07:33:49.346Z,75.99
2023-05-21T07:34:49.333Z,76.30
2023-05-21T07:35:49.321Z,77.40
2023-05-21T07:36:49.311Z,75.90
2023-05-21T07:37:49.335Z,75.90
2023-05-21T07:38:49.298Z,76.30
2023-05-21T07:39:49.269Z,75.70
2023-05-21T07:40:49.259Z,75.86
2023-05-21T07:41:49.248Z,76.63
2023-05-21T07:42:49.256Z,74.98
2023-05-21T07:43:49.232Z,74.31
2023-05-21T07:44:49.210Z,72.56
2023-05-21T07:45:49.203Z,69.29
2023-05-21T07:46:49.256Z,70.26
2023-05-21T07:47:49.225Z,70.32
2023-05-21T07:48:49.175Z,68.22
2023-05-21T07:49:49.174Z,66.92
2023-05-21T07:50:49.180Z,65.59
2023-05-21T07:51:49.139Z,68.49
2023-05-21T07:52:49.170Z,68.89
2023-05-21T07:53:49.113Z,68.42
2023-05-21T07:54:49.149Z,67.62
2023-05-21T07:55:49.106Z,68.02
2023-05-21T07:56:49.122Z,69.12
2023-05-21T07:57:49.085Z,68.65
2023-05-21T07:58:49.080Z,68.52
2023-05-21T07:59:49.060Z,69.62
2023-05-21T08:00:49.061Z,69.42
2023-05-21T08:01:49.058Z,68.92
2023-05-21T08:02:49.071Z,69.12
2023-05-21T08:03:49.183Z,67.72
2023-05-21T08:04:49.089Z,69.82
2023-05-21T08:05:49.038Z,69.99
2023-05-21T08:06:49.017Z,70.93
2023-05-21T08:07:48.972Z,68.92
2023-05-21T08:08:48.959Z,68.52
2023-05-21T08:09:48.949Z,68.42
2023-05-21T08:10:48.962Z,68.73
2023-05-21T08:11:48.951Z,68.32
2023-05-21T08:12:48.925Z,67.92
2023-05-21T08:13:48.901Z,69.23
2023-05-21T08:14:48.900Z,69.23
2023-05-21T08:15:51.261Z,70.23
2023-05-21T08:16:48.917Z,69.53
2023-05-21T08:17:48.913Z,68.96
2023-05-21T08:18:48.878Z,69.16
2023-05-21T08:19:48.865Z,69.39
2023-05-21T08:20:48.853Z,70.66
2023-05-21T08:21:50.309Z,70.86
2023-05-21T08:22:48.815Z,71.86
2023-05-21T08:23:48.792Z,70.56
2023-05-21T08:24:48.838Z,71.36
2023-05-21T08:25:48.782Z,69.26
2023-05-21T08:26:48.771Z,70.96
2023-05-21T08:27:50.924Z,71.36
2023-05-21T08:28:48.751Z,70.32
2023-05-21T08:29:48.758Z,71.53
2023-05-21T08:30:48.743Z,71.03
2023-05-21T08:31:48.747Z,71.50
2023-05-21T08:32:48.720Z,70.06
2023-05-21T08:33:48.710Z,68.16
2023-05-21T08:34:48.713Z,70.23
2023-05-21T08:35:48.670Z,67.79
2023-05-21T08:36:48.660Z,68.36
2023-05-21T08:37:48.652Z,67.60
2023-05-21T08:38:48.660Z,64.87
2023-05-21T08:39:48.646Z,63.71
2023-05-21T08:40:48.622Z,63.65
2023-05-21T08:41:48.604Z,61.30
2023-05-21T08:42:48.608Z,61.27
2023-05-21T08:43:50.407Z,60.35
2023-05-21T08:44:48.583Z,60.22
2023-05-21T08:45:48.609Z,59.92
2023-05-21T08:46:48.555Z,59.95
2023-05-21T08:47:48.568Z,57.99
2023-05-21T08:48:48.581Z,58.11
2023-05-21T08:49:48.517Z,58.50
2023-05-21T08:50:48.514Z,59.79
2023-05-21T08:51:48.507Z,60.32
2023-05-21T08:52:48.515Z,60.22
2023-05-21T08:53:48.505Z,60.95
2023-05-21T08:54:48.476Z,60.85
2023-05-21T08:55:49.657Z,61.61
2023-05-21T08:56:48.458Z,62.45
2023-05-21T08:57:48.488Z,61.55
2023-05-21T08:58:48.471Z,61.05
2023-05-21T08:59:48.420Z,61.65
2023-05-21T09:00:48.453Z,60.55
2023-05-21T09:01:48.424Z,61.44
2023-05-21T09:02:48.446Z,62.24
2023-05-21T09:03:48.424Z,61.94
2023-05-21T09:04:48.383Z,62.27
2023-05-21T09:05:48.369Z,63.27
2023-05-21T09:06:48.548Z,61.27
2023-05-21T09:07:49.771Z,62.40
2023-05-21T09:08:48.317Z,63.10
2023-05-21T09:09:48.315Z,63.73
2023-05-21T09:10:48.302Z,63.13
2023-05-21T09:11:48.339Z,63.66
2023-05-21T09:12:48.277Z,63.26
2023-05-21T09:13:48.265Z,63.46
2023-05-21T09:14:48.257Z,63.83
2023-05-21T09:15:48.243Z,63.73
2023-05-21T09:16:48.336Z,65.00
2023-05-21T09:17:48.279Z,62.81
2023-05-21T09:18:48.267Z,62.70
2023-05-21T09:19:48.201Z,64.57
2023-05-21T09:20:48.197Z,61.51
2023-05-21T09:21:48.203Z,62.40
2023-05-21T09:22:48.175Z,61.96
2023-05-21T09:23:48.175Z,63.76
2023-05-21T09:24:48.161Z,66.56
2023-05-21T09:25:48.413Z,64.96
2023-05-21T09:26:48.129Z,64.19
2023-05-21T09:27:48.117Z,63.79
2023-05-21T09:28:48.110Z,64.03
2023-05-21T09:29:48.103Z,65.72
2023-05-21T09:30:48.170Z,64.72
2023-05-21T09:31:48.238Z,65.92
2023-05-21T09:32:48.095Z,65.52
2023-05-21T09:33:48.070Z,66.42
2023-05-21T09:34:48.059Z,66.52
2023-05-21T09:35:48.054Z,65.22
2023-05-21T09:36:48.012Z,64.52
2023-05-21T09:37:48.016Z,65.55
2023-05-21T09:38:47.994Z,65.25
2023-05-21T09:39:48.034Z,65.95
2023-05-21T09:40:47.980Z,64.65
2023-05-21T09:41:47.964Z,66.25
2023-05-21T09:42:47.959Z,66.22
2023-05-21T09:43:47.971Z,67.13
2023-05-21T09:44:47.957Z,66.13
2023-05-21T09:45:47.929Z,66.13
2023-05-21T09:46:47.989Z,66.22
2023-05-21T09:47:47.927Z,67.02
2023-05-21T09:48:47.923Z,66.93
2023-05-21T09:49:47.915Z,66.02
2023-05-21T09:50:47.878Z,66.32
2023-05-21T09:51:47.864Z,66.82
2023-05-21T09:52:47.853Z,65.83
2023-05-21T09:53:47.866Z,66.89
2023-05-21T09:54:47.831Z,65.56
2023-05-21T09:55:47.836Z,66.06
2023-05-21T09:56:47.808Z,64.53
2023-05-21T09:57:49.809Z,65.33
2023-05-21T09:58:47.813Z,64.90
2023-05-21T09:59:47.769Z,64.37
2023-05-21T10:00:47.773Z,61.98
2023-05-21T10:01:47.779Z,64.67
2023-05-21T10:02:47.798Z,63.07
2023-05-21T10:03:49.310Z,62.97
2023-05-21T10:04:47.792Z,62.77
2023-05-21T10:05:47.717Z,64.37
2023-05-21T10:06:47.703Z,62.34
2023-05-21T10:07:47.723Z,63.41
2023-05-21T10:08:47.682Z,61.49
2023-05-21T10:09:47.679Z,62.18
2023-05-21T10:10:47.647Z,60.99
2023-05-21T10:11:47.657Z,61.16
2023-05-21T10:12:47.650Z,61.13
2023-05-21T10:13:47.641Z,60.73
2023-05-21T10:14:47.631Z,59.47
2023-05-21T10:15:49.427Z,61.40
2023-05-21T10:16:47.740Z,58.91
2023-05-21T10:17:47.628Z,59.51
2023-05-21T10:18:47.611Z,59.21
2023-05-21T10:19:47.565Z,60.68
2023-05-21T10:20:47.543Z,59.61
2023-05-21T10:21:47.578Z,59.31
2023-05-21T10:22:47.522Z,60.24
2023-05-21T10:23:47.553Z,59.61
2023-05-21T10:24:47.510Z,60.40
2023-05-21T10:25:47.489Z,59.38
2023-05-21T10:26:47.503Z,58.39
2023-05-21T10:27:47.484Z,59.15
2023-05-21T10:28:47.462Z,58.45
2023-05-21T10:29:47.479Z,57.22
2023-05-21T10:30:47.455Z,60.13
2023-05-21T10:31:47.486Z,60.96
2023-05-21T10:32:47.537Z,59.56
2023-05-21T10:33:47.417Z,59.47
2023-05-21T10:34:47.398Z,60.26
2023-05-21T10:35:47.410Z,61.36
2023-05-21T10:36:47.371Z,61.25
2023-05-21T10:37:47.386Z,60.86
2023-05-21T10:38:47.363Z,61.36
2023-05-21T10:39:47.368Z,62.15
2023-05-21T10:40:47.364Z,60.93
2023-05-21T10:41:47.339Z,61.93
2023-05-21T10:42:47.310Z,61.03
2023-05-21T10:43:47.311Z,60.33
2023-05-21T10:44:47.320Z,61.10
2023-05-21T10:45:47.309Z,60.11
2023-05-21T10:46:47.276Z,59.11
2023-05-21T10:47:47.310Z,59.81
2023-05-21T10:48:47.272Z,60.47
2023-05-21T10:49:47.271Z,60.08
2023-05-21T10:50:47.238Z,58.65
2023-05-21T10:51:47.227Z,59.45
2023-05-21T10:52:47.217Z,59.51
2023-05-21T10:53:47.239Z,61.17
2023-05-21T10:54:47.201Z,58.75
2023-05-21T10:55:47.188Z,59.92
2023-05-21T10:56:47.181Z,59.52
2023-05-21T10:57:47.180Z,58.73
2023-05-21T10:58:47.161Z,59.59
2023-05-21T10:59:47.140Z,59.86
2023-05-21T11:00:47.146Z,57.83
2023-05-21T11:01:47.181Z,59.69
2023-05-21T11:02:47.160Z,59.36
2023-05-21T11:03:47.136Z,57.38
2023-05-21T11:04:47.080Z,57.68
2023-05-21T11:05:47.079Z,57.08
2023-05-21T11:06:47.066Z,56.88
2023-05-21T11:07:47.081Z,57.41
2023-05-21T11:08:47.061Z,57.41
2023-05-21T11:09:47.029Z,57.73
2023-05-21T11:10:47.018Z,59.00
2023-05-21T11:11:47.018Z,58.50
2023-05-21T11:12:47.019Z,58.27
2023-05-21T11:13:46.999Z,57.68
2023-05-21T11:14:46.979Z,57.55
2023-05-21T11:15:46.980Z,58.17
2023-05-21T11:16:47.019Z,56.56
2023-05-21T11:17:46.984Z,56.46
2023-05-21T11:18:47.005Z,56.83
2023-05-21T11:19:46.952Z,57.46
2023-05-21T11:20:46.920Z,54.57
2023-05-21T11:21:46.923Z,54.35
2023-05-21T11:22:46.921Z,54.71
2023-05-21T11:23:46.888Z,53.40
2023-05-21T11:24:48.274Z,53.20
2023-05-21T11:25:46.901Z,53.50
2023-05-21T11:26:46.907Z,55.08
2023-05-21T11:27:46.851Z,51.10
2023-05-21T11:28:46.856Z,50.19
2023-05-21T11:29:46.825Z,51.47
2023-05-21T11:30:46.816Z,51.84
2023-05-21T11:31:46.895Z,50.16
2023-05-21T11:32:46.800Z,50.88
2023-05-21T11:33:46.786Z,52.93
2023-05-21T11:34:46.766Z,52.44
2023-05-21T11:35:46.776Z,54.86
2023-05-21T11:36:46.768Z,55.49
2023-05-21T11:37:46.757Z,54.07
2023-05-21T11:38:46.756Z,54.57
2023-05-21T11:39:46.722Z,54.86
2023-05-21T11:40:46.722Z,55.58
2023-05-21T11:41:46.701Z,56.97
2023-05-21T11:42:46.678Z,55.29
2023-05-21T11:43:46.672Z,56.21
2023-05-21T11:44:46.667Z,56.83
2023-05-21T11:45:46.685Z,57.25
2023-05-21T11:46:46.708Z,57.98
2023-05-21T11:47:46.678Z,57.38
2023-05-21T11:48:46.607Z,57.81
2023-05-21T11:49:46.632Z,57.90
2023-05-21T11:50:46.618Z,56.68
2023-05-21T11:51:46.593Z,59.36
2023-05-21T11:52:46.586Z,57.75
2023-05-21T11:53:46.572Z,56.34
2023-05-21T11:54:46.645Z,56.01
2023-05-21T11:55:46.545Z,55.19
2023-05-21T11:56:46.532Z,53.50
2023-05-21T11:57:46.535Z,55.11
2023-05-21T11:58:46.549Z,54.82
2023-05-21T11:59:46.535Z,54.72
2023-05-21T12:00:46.496Z,54.79
2023-05-21T12:01:46.483Z,56.08
2023-05-21T12:02:46.611Z,54.30
2023-05-21T12:03:46.582Z,55.46
2023-05-21T12:04:46.460Z,55.46
2023-05-21T12:05:46.538Z,53.25
2023-05-21T12:06:46.425Z,53.16
2023-05-21T12:07:46.428Z,55.24
2023-05-21T12:08:46.426Z,54.86
2023-05-21T12:09:46.405Z,54.84
2023-05-21T12:10:46.387Z,55.66
2023-05-21T12:11:46.386Z,54.14
2023-05-21T12:12:54.595Z,53.03
2023-05-21T12:13:46.394Z,53.08
2023-05-21T12:14:46.352Z,50.88
2023-05-21T12:15:46.348Z,49.67
2023-05-21T12:16:46.389Z,49.08
2023-05-21T12:17:46.367Z,49.87
2023-05-21T12:18:46.346Z,49.74
2023-05-21T12:19:46.296Z,50.02
2023-05-21T12:20:46.288Z,48.41
2023-05-21T12:21:46.276Z,49.87
2023-05-21T12:22:46.274Z,44.25
2023-05-21T12:23:46.259Z,45.65
2023-05-21T12:24:46.247Z,47.03
2023-05-21T12:25:46.229Z,46.25
2023-05-21T12:26:46.276Z,46.64
2023-05-21T12:27:46.239Z,46.52
2023-05-21T12:28:46.195Z,45.04
2023-05-21T12:29:46.211Z,45.73
2023-05-21T12:30:46.169Z,45.14
2023-05-21T12:31:46.254Z,45.26
2023-05-21T12:32:46.174Z,45.70
2023-05-21T12:33:46.155Z,46.19
2023-05-21T12:34:46.190Z,46.19
2023-05-21T12:35:46.182Z,48.24
2023-05-21T12:36:46.152Z,46.86
2023-05-21T12:37:46.109Z,44.84
2023-05-21T12:38:46.089Z,45.21
2023-05-21T12:39:46.104Z,45.93
2023-05-21T12:40:46.180Z,45.04
2023-05-21T12:41:46.092Z,44.92
2023-05-21T12:42:46.056Z,45.02
2023-05-21T12:43:46.056Z,44.40
2023-05-21T12:44:46.056Z,44.11
2023-05-21T12:45:46.062Z,45.04
2023-05-21T12:46:46.021Z,45.53
2023-05-21T12:47:46.028Z,47.03
2023-05-21T12:48:45.987Z,46.34
2023-05-21T12:49:45.987Z,46.86
2023-05-21T12:50:46.000Z,46.78
2023-05-21T12:51:45.970Z,45.89
2023-05-21T12:52:45.965Z,47.69